createdAt,value
2022-11-28T00:01:45.447Z,8.77
2022-11-28T00:04:12.191Z,9.60
2022-11-28T00:06:39.885Z,8.68
2022-11-28T00:09:07.005Z,9.75
2022-11-28T00:11:33.341Z,8.23
2022-11-28T00:13:59.797Z,8.05
2022-11-28T00:16:26.249Z,8.27
2022-11-28T00:18:53.757Z,7.70
2022-11-28T00:21:20.463Z,7.97
2022-11-28T00:23:47.542Z,6.72
2022-11-28T00:26:18.975Z,9.47
2022-11-28T00:28:45.445Z,8.05
2022-11-28T00:31:15.384Z,7.78
2022-11-28T00:33:42.110Z,8.02
2022-11-28T00:36:08.867Z,8.55
2022-11-28T00:38:35.261Z,6.60
2022-11-28T00:41:06.037Z,4.35
2022-11-28T00:43:32.645Z,5.03
2022-11-28T00:45:59.072Z,5.50
2022-11-28T00:48:25.980Z,5.90
2022-11-28T00:50:52.672Z,5.90
2022-11-28T00:53:19.043Z,6.40
2022-11-28T00:55:45.364Z,6.03
2022-11-28T00:58:11.737Z,5.00
2022-11-28T01:00:38.135Z,4.97
2022-11-28T01:03:04.512Z,4.57
2022-11-28T01:05:30.902Z,4.28
2022-11-28T01:07:57.309Z,3.88
2022-11-28T01:10:23.676Z,3.47
2022-11-28T01:12:50.029Z,4.05
2022-11-28T01:15:16.369Z,3.75
2022-11-28T01:17:42.681Z,3.42
2022-11-28T01:20:09.313Z,3.47
2022-11-28T01:22:35.680Z,2.60
2022-11-28T01:25:01.987Z,4.28
2022-11-28T01:27:28.321Z,3.40
2022-11-28T01:29:54.701Z,3.58
2022-11-28T01:32:21.049Z,4.13
2022-11-28T01:34:47.351Z,3.55
2022-11-28T01:37:13.704Z,3.63
2022-11-28T01:39:40.172Z,4.28
2022-11-28T01:42:06.553Z,4.22
2022-11-28T01:44:32.863Z,3.53
2022-11-28T01:46:59.272Z,3.90
2022-11-28T01:49:30.837Z,4.40
2022-11-28T01:52:02.312Z,4.10
2022-11-28T01:54:29.697Z,4.53
2022-11-28T01:56:58.706Z,3.90
2022-11-28T01:59:27.141Z,3.97
2022-11-28T02:01:53.550Z,4.22
2022-11-28T02:04:20.283Z,3.80
2022-11-28T02:06:46.611Z,4.95
2022-11-28T02:09:14.049Z,3.75
2022-11-28T02:11:55.412Z,3.95
2022-11-28T02:14:40.786Z,4.38
2022-11-28T02:17:10.290Z,3.65
2022-11-28T02:20:01.066Z,4.38
2022-11-28T02:22:27.386Z,4.70
2022-11-28T02:25:14.496Z,3.88
2022-11-28T02:27:43.836Z,3.78
2022-11-28T02:30:16.261Z,2.70
2022-11-28T02:33:00.873Z,3.05
2022-11-28T02:35:27.178Z,2.58
2022-11-28T02:37:56.495Z,2.20
2022-11-28T02:40:35.097Z,2.30
2022-11-28T02:43:10.612Z,2.85
2022-11-28T02:45:41.715Z,1.92
2022-11-28T02:48:13.704Z,2.35
2022-11-28T02:50:44.011Z,2.42
2022-11-28T02:53:13.106Z,2.97
2022-11-28T02:55:40.525Z,2.72
2022-11-28T02:58:07.583Z,2.78
2022-11-28T03:00:35.403Z,3.63
2022-11-28T03:05:37.801Z,2.47
2022-11-28T03:08:22.510Z,2.75
2022-11-28T03:10:51.882Z,2.80
2022-11-28T03:13:33.765Z,2.35
2022-11-28T03:16:26.367Z,2.38
2022-11-28T03:18:58.557Z,2.10
2022-11-28T03:21:30.096Z,2.25
2022-11-28T03:24:25.645Z,2.78
2022-11-28T03:27:02.077Z,3.47
2022-11-28T03:29:34.725Z,2.35
2022-11-28T03:32:03.209Z,3.22
2022-11-28T03:34:34.357Z,2.15
2022-11-28T03:37:03.049Z,2.70
2022-11-28T03:39:31.896Z,3.03
2022-11-28T03:42:02.331Z,2.30
2022-11-28T03:44:32.116Z,3.63
2022-11-28T03:47:00.720Z,2.55
2022-11-28T03:49:36.748Z,2.38
2022-11-28T03:52:04.465Z,2.30
2022-11-28T03:54:48.733Z,2.70
2022-11-28T03:57:35.154Z,2.33
2022-11-28T04:00:09.103Z,3.03
2022-11-28T04:02:42.281Z,2.53
2022-11-28T04:05:14.664Z,2.67
2022-11-28T04:08:03.413Z,2.08
2022-11-28T04:10:33.241Z,2.92
2022-11-28T04:13:17.979Z,1.83
2022-11-28T04:15:47.112Z,2.55
2022-11-28T04:18:13.408Z,2.22
2022-11-28T04:20:45.096Z,3.22
2022-11-28T04:23:13.110Z,2.58
2022-11-28T04:28:09.161Z,2.83
2022-11-28T04:30:36.394Z,2.55
2022-11-28T04:33:05.548Z,2.30
2022-11-28T04:35:33.755Z,2.60
2022-11-28T04:38:01.410Z,2.30
2022-11-28T04:40:30.289Z,2.38
2022-11-28T04:42:59.515Z,2.40
2022-11-28T04:45:31.937Z,3.17
2022-11-28T04:47:58.409Z,2.35
2022-11-28T04:50:28.386Z,2.50
2022-11-28T04:52:57.448Z,2.55
2022-11-28T04:55:32.642Z,1.80
2022-11-28T04:58:11.240Z,3.08
2022-11-28T05:00:38.264Z,2.30
2022-11-28T05:03:05.954Z,2.57
2022-11-28T05:05:40.949Z,2.88
2022-11-28T05:08:07.293Z,2.28
2022-11-28T05:10:33.750Z,2.28
2022-11-28T05:13:00.228Z,2.80
2022-11-28T05:15:26.543Z,2.58
2022-11-28T05:17:52.849Z,3.25
2022-11-28T05:20:19.184Z,2.70
2022-11-28T05:22:45.536Z,2.05
2022-11-28T05:25:11.953Z,2.17
2022-11-28T05:27:38.301Z,2.83
2022-11-28T05:30:05.733Z,2.20
2022-11-28T05:32:32.622Z,2.90
2022-11-28T05:34:59.007Z,2.30
2022-11-28T05:37:25.764Z,2.67
2022-11-28T05:39:52.114Z,2.60
2022-11-28T05:42:18.426Z,3.08
2022-11-28T05:44:44.792Z,1.98
2022-11-28T05:47:11.174Z,2.10
2022-11-28T05:49:37.691Z,1.88
2022-11-28T05:52:04.088Z,2.78
2022-11-28T05:54:31.561Z,2.40
2022-11-28T05:56:58.233Z,3.58
2022-11-28T05:59:24.853Z,2.67
2022-11-28T06:01:51.233Z,2.72
2022-11-28T06:04:17.628Z,2.67
2022-11-28T06:06:44.021Z,2.80
2022-11-28T06:09:10.524Z,2.28
2022-11-28T06:11:36.845Z,2.30
2022-11-28T06:14:03.348Z,2.97
2022-11-28T06:16:30.221Z,2.65
2022-11-28T06:18:57.949Z,2.35
2022-11-28T06:21:24.569Z,2.63
2022-11-28T06:23:51.047Z,2.63
2022-11-28T06:26:18.908Z,2.45
2022-11-28T06:28:45.238Z,2.20
2022-11-28T06:31:16.396Z,2.08
2022-11-28T06:33:42.818Z,2.25
2022-11-28T06:36:10.076Z,3.00
2022-11-28T06:38:36.590Z,2.47
2022-11-28T06:41:04.340Z,3.45
2022-11-28T06:43:30.949Z,2.85
2022-11-28T06:45:57.428Z,2.78
2022-11-28T06:48:23.914Z,3.00
2022-11-28T06:50:50.658Z,3.45
2022-11-28T06:53:17.249Z,3.10
2022-11-28T06:55:44.018Z,1.52
2022-11-28T06:58:10.486Z,2.25
2022-11-28T07:00:37.298Z,2.17
2022-11-28T07:03:03.841Z,2.95
2022-11-28T07:05:31.099Z,3.30
2022-11-28T07:07:57.889Z,8.48
2022-11-28T07:10:24.734Z,15.52
2022-11-28T07:13:01.247Z,6.55
2022-11-28T07:15:30.192Z,3.83
2022-11-28T07:17:56.512Z,4.10
2022-11-28T07:20:22.874Z,5.47
2022-11-28T07:22:49.252Z,6.63
2022-11-28T07:25:16.052Z,9.20
2022-11-28T07:27:42.911Z,9.50
2022-11-28T07:30:09.485Z,8.75
2022-11-28T07:32:38.420Z,11.52
2022-11-28T07:35:06.717Z,16.50
2022-11-28T07:37:33.056Z,14.07
2022-11-28T07:39:59.379Z,13.00
2022-11-28T07:42:25.698Z,8.50
2022-11-28T07:44:52.078Z,9.77
2022-11-28T07:47:18.463Z,8.23
2022-11-28T07:49:45.293Z,9.48
2022-11-28T07:52:11.736Z,9.07
2022-11-28T07:54:38.084Z,8.82
2022-11-28T07:57:12.121Z,10.38
2022-11-28T07:59:39.739Z,10.75
2022-11-28T08:02:06.601Z,10.75
2022-11-28T08:04:33.077Z,10.10
2022-11-28T08:06:59.450Z,10.23
2022-11-28T08:09:25.824Z,11.48
2022-11-28T08:11:52.524Z,11.80
2022-11-28T08:14:18.874Z,12.50
2022-11-28T08:16:45.479Z,12.27
2022-11-28T08:19:12.024Z,14.55
2022-11-28T08:21:38.679Z,14.15
2022-11-28T08:24:05.573Z,12.85
2022-11-28T08:26:32.582Z,14.18
2022-11-28T08:28:59.392Z,11.07
2022-11-28T08:31:36.327Z,8.82
2022-11-28T08:34:04.491Z,10.67
2022-11-28T08:36:31.118Z,8.80
2022-11-28T08:41:45.640Z,9.77
2022-11-28T08:44:11.944Z,12.45
2022-11-28T08:46:38.268Z,16.38
2022-11-28T08:49:04.943Z,24.25
2022-11-28T08:51:31.448Z,20.13
2022-11-28T08:53:59.600Z,18.83
2022-11-28T08:56:26.483Z,16.73
2022-11-28T08:58:52.821Z,8.55
2022-11-28T09:01:24.124Z,8.73
2022-11-28T09:03:51.119Z,10.55
2022-11-28T09:06:18.009Z,10.03
2022-11-28T09:08:44.861Z,12.18
2022-11-28T09:11:12.317Z,13.02
2022-11-28T09:13:38.886Z,20.40
2022-11-28T09:16:05.479Z,20.77
2022-11-28T09:18:31.831Z,8.15
2022-11-28T09:21:01.972Z,10.82
2022-11-28T09:23:29.170Z,10.88
2022-11-28T09:25:55.660Z,13.85
2022-11-28T09:28:22.165Z,13.25
2022-11-28T09:30:48.499Z,12.45
2022-11-28T09:33:15.727Z,11.68
2022-11-28T09:35:42.191Z,8.25
2022-11-28T09:38:08.687Z,7.40
2022-11-28T09:40:37.615Z,12.85
2022-11-28T09:43:06.334Z,6.57
2022-11-28T09:45:33.553Z,6.15
2022-11-28T09:48:08.140Z,7.05
2022-11-28T09:50:35.653Z,7.90
2022-11-28T09:53:11.121Z,6.80
2022-11-28T09:55:58.887Z,6.32
2022-11-28T09:59:04.089Z,5.30
2022-11-28T10:01:30.479Z,4.03
2022-11-28T10:04:06.158Z,3.67
2022-11-28T10:06:48.573Z,4.57
2022-11-28T10:09:27.244Z,3.80
2022-11-28T10:11:53.548Z,4.18
2022-11-28T10:14:32.513Z,5.40
2022-11-28T10:17:03.399Z,6.55
2022-11-28T10:22:27.578Z,2.25
2022-11-28T10:24:56.200Z,2.08
2022-11-28T10:27:26.929Z,2.05
2022-11-28T10:29:59.247Z,1.85
2022-11-28T10:32:31.037Z,1.48
2022-11-28T10:35:07.773Z,1.02
2022-11-28T10:37:35.939Z,1.55
2022-11-28T10:40:22.535Z,1.38
2022-11-28T10:42:51.592Z,1.83
2022-11-28T10:45:23.137Z,1.20
2022-11-28T10:47:55.369Z,1.40
2022-11-28T10:50:32.187Z,1.73
2022-11-28T10:55:25.020Z,1.10
2022-11-28T10:57:55.996Z,1.60
2022-11-28T11:00:22.331Z,1.15
2022-11-28T11:02:54.767Z,1.10
2022-11-28T11:05:25.793Z,1.50
2022-11-28T11:07:56.421Z,1.52
2022-11-28T11:10:25.600Z,1.23
2022-11-28T11:12:52.996Z,1.58
2022-11-28T11:15:21.902Z,1.85
2022-11-28T11:17:50.443Z,1.30
2022-11-28T11:20:25.989Z,1.30
2022-11-28T11:22:56.576Z,1.85
2022-11-28T11:25:23.977Z,2.30
2022-11-28T11:27:55.013Z,2.20
2022-11-28T11:30:27.261Z,2.20
2022-11-28T11:32:54.326Z,1.23
2022-11-28T11:35:23.753Z,1.38
2022-11-28T11:37:50.201Z,1.65
2022-11-28T11:40:29.449Z,1.60
2022-11-28T11:42:57.270Z,1.25
2022-11-28T11:45:28.147Z,1.30
2022-11-28T11:47:54.936Z,0.88
2022-11-28T11:50:23.027Z,1.27
2022-11-28T11:53:04.697Z,1.67
2022-11-28T11:55:32.685Z,1.05
2022-11-28T11:58:04.241Z,1.33
2022-11-28T12:00:37.700Z,1.00
2022-11-28T12:03:13.008Z,2.13
2022-11-28T12:06:06.150Z,1.00
2022-11-28T12:08:31.537Z,1.40
2022-11-28T12:11:05.449Z,1.45
2022-11-28T12:13:32.957Z,1.30
2022-11-28T12:16:02.305Z,1.25
2022-11-28T12:18:28.623Z,1.45
2022-11-28T12:21:14.906Z,1.10
2022-11-28T12:23:44.308Z,1.45
2022-11-28T12:26:10.669Z,0.90
2022-11-28T12:28:57.434Z,1.60
2022-11-28T12:34:25.637Z,1.63
2022-11-28T12:37:09.976Z,2.08
2022-11-28T12:39:36.504Z,1.75
2022-11-28T12:42:05.998Z,1.40
2022-11-28T12:44:32.330Z,3.17
2022-11-28T12:47:17.229Z,4.23
2022-11-28T12:49:57.940Z,2.85
2022-11-28T12:52:27.111Z,2.90
2022-11-28T12:55:12.326Z,5.55
2022-11-28T12:57:41.857Z,1.83
2022-11-28T13:00:14.863Z,1.90
2022-11-28T13:02:52.204Z,1.85
2022-11-28T13:05:18.548Z,2.17
2022-11-28T13:07:47.747Z,2.67
2022-11-28T13:10:38.589Z,1.90
2022-11-28T13:13:08.693Z,1.48
2022-11-28T13:15:41.257Z,2.35
2022-11-28T13:18:13.564Z,1.50
2022-11-28T13:20:46.327Z,2.42
2022-11-28T13:23:24.464Z,3.38
2022-11-28T13:26:10.032Z,2.35
2022-11-28T13:28:42.715Z,1.73
2022-11-28T13:31:14.278Z,1.70
2022-11-28T13:33:50.020Z,1.20
2022-11-28T13:39:30.030Z,2.10
2022-11-28T13:42:44.251Z,1.65
2022-11-28T13:45:07.170Z,1.25
2022-11-28T13:47:35.344Z,1.27
2022-11-28T13:50:20.380Z,1.63
2022-11-28T13:52:57.416Z,3.05
2022-11-28T13:55:35.938Z,1.40
2022-11-28T13:58:31.756Z,1.50
2022-11-28T14:01:00.851Z,1.50
2022-11-28T14:03:27.397Z,1.58
2022-11-28T14:05:55.981Z,1.80
2022-11-28T14:08:31.546Z,1.45
2022-11-28T14:11:07.164Z,1.95
2022-11-28T14:13:33.473Z,1.52
2022-11-28T14:16:07.880Z,1.88
2022-11-28T14:18:58.231Z,1.58
2022-11-28T14:21:27.848Z,2.17
2022-11-28T14:24:02.551Z,4.30
2022-11-28T14:26:28.869Z,2.85
2022-11-28T14:28:55.279Z,2.92
2022-11-28T14:31:27.301Z,2.03
2022-11-28T14:34:16.767Z,3.25
2022-11-28T14:36:43.785Z,2.80
2022-11-28T14:39:15.960Z,2.60
2022-11-28T14:42:01.141Z,2.80
2022-11-28T14:44:46.697Z,3.70
2022-11-28T14:47:46.340Z,1.77
2022-11-28T14:50:17.736Z,3.00
2022-11-28T14:52:46.345Z,3.20
2022-11-28T14:55:13.041Z,3.00
2022-11-28T14:57:51.569Z,2.63
2022-11-28T15:00:22.807Z,2.00
2022-11-28T15:03:01.336Z,2.22
2022-11-28T15:05:27.667Z,2.53
2022-11-28T15:08:04.595Z,2.53
2022-11-28T15:10:53.923Z,1.92
2022-11-28T15:13:39.136Z,2.42
2022-11-28T15:16:06.429Z,2.55
2022-11-28T15:18:33.078Z,2.50
2022-11-28T15:21:05.217Z,3.83
2022-11-28T15:23:38.499Z,12.45
2022-11-28T15:26:05.267Z,15.27
2022-11-28T15:28:33.927Z,28.87
2022-11-28T15:31:01.161Z,45.40
2022-11-28T15:33:27.983Z,18.88
2022-11-28T15:35:59.833Z,16.77
2022-11-28T15:38:27.343Z,14.48
2022-11-28T15:40:54.707Z,16.52
2022-11-28T15:43:21.286Z,21.05
2022-11-28T15:45:49.111Z,16.75
2022-11-28T15:50:49.309Z,9.65
2022-11-28T15:53:19.229Z,6.82
2022-11-28T15:55:46.044Z,4.82
2022-11-28T15:58:32.652Z,4.45
2022-11-28T16:01:17.070Z,3.90
2022-11-28T16:03:49.784Z,3.80
2022-11-28T16:06:17.459Z,4.07
2022-11-28T16:09:06.341Z,4.20
2022-11-28T16:11:34.401Z,4.50
2022-11-28T16:14:06.336Z,4.70
2022-11-28T16:16:35.485Z,4.45
2022-11-28T16:19:03.272Z,4.65
2022-11-28T16:21:35.966Z,4.13
2022-11-28T16:24:03.445Z,3.83
2022-11-28T16:26:31.830Z,3.90
2022-11-28T16:29:07.175Z,3.92
2022-11-28T16:31:33.889Z,3.80
2022-11-28T16:34:01.309Z,4.07
2022-11-28T16:36:35.515Z,3.80
2022-11-28T16:39:11.052Z,3.72
2022-11-28T16:41:39.113Z,4.05
2022-11-28T16:44:12.641Z,4.97
2022-11-28T16:46:39.931Z,3.60
2022-11-28T16:49:09.019Z,16.92
2022-11-28T16:51:36.516Z,7.00
2022-11-28T16:54:32.197Z,7.90
2022-11-28T16:57:09.757Z,35.80
2022-11-28T16:59:36.312Z,18.88
2022-11-28T17:02:03.047Z,8.20
2022-11-28T17:04:30.219Z,8.38
2022-11-28T17:06:57.533Z,8.07
2022-11-28T17:09:23.921Z,6.80
2022-11-28T17:11:56.941Z,9.80
2022-11-28T17:14:23.401Z,16.65
2022-11-28T17:16:49.879Z,19.05
2022-11-28T17:19:16.593Z,17.15
2022-11-28T17:21:48.453Z,13.38
2022-11-28T17:24:19.000Z,15.38
2022-11-28T17:26:45.790Z,13.23
2022-11-28T17:29:13.162Z,9.80
2022-11-28T17:31:43.063Z,7.63
2022-11-28T17:34:12.787Z,7.13
2022-11-28T17:36:39.088Z,6.53
2022-11-28T17:39:05.542Z,7.20
2022-11-28T17:41:31.885Z,17.42
2022-11-28T17:43:58.209Z,13.00
2022-11-28T17:46:24.566Z,10.95
2022-11-28T17:48:50.872Z,8.60
2022-11-28T17:51:17.260Z,10.25
2022-11-28T17:53:43.639Z,6.95
2022-11-28T17:56:12.052Z,5.70
2022-11-28T17:58:38.370Z,5.03
2022-11-28T18:01:09.272Z,4.95
2022-11-28T18:03:35.630Z,5.35
2022-11-28T18:06:01.997Z,5.03
2022-11-28T18:08:28.343Z,5.82
2022-11-28T18:11:04.645Z,5.90
2022-11-28T18:13:31.469Z,13.25
2022-11-28T18:15:57.905Z,14.98
2022-11-28T18:18:24.280Z,12.90
2022-11-28T18:20:50.644Z,13.65
2022-11-28T18:23:16.988Z,14.13
2022-11-28T18:25:43.937Z,15.05
2022-11-28T18:28:14.519Z,14.30
2022-11-28T18:30:45.752Z,13.52
2022-11-28T18:33:12.654Z,14.75
2022-11-28T18:35:39.361Z,15.43
2022-11-28T18:38:06.546Z,13.25
2022-11-28T18:40:34.041Z,12.65
2022-11-28T18:43:01.486Z,11.68
2022-11-28T18:45:27.927Z,12.23
2022-11-28T18:47:59.894Z,12.13
2022-11-28T18:50:26.592Z,35.17
2022-11-28T18:52:53.139Z,11.20
2022-11-28T18:55:20.331Z,10.07
2022-11-28T18:57:46.830Z,11.88
2022-11-28T19:00:13.647Z,13.65
2022-11-28T19:02:40.745Z,13.50
2022-11-28T19:05:07.258Z,14.73
2022-11-28T19:07:33.611Z,16.35
2022-11-28T19:09:59.994Z,16.35
2022-11-28T19:12:26.323Z,17.35
2022-11-28T19:14:55.076Z,18.38
2022-11-28T19:17:25.206Z,17.77
2022-11-28T19:19:51.796Z,19.17
2022-11-28T19:22:18.113Z,17.65
2022-11-28T19:24:44.478Z,14.52
2022-11-28T19:27:14.349Z,20.27
2022-11-28T19:29:41.230Z,25.88
2022-11-28T19:32:07.893Z,26.77
2022-11-28T19:34:34.328Z,25.38
2022-11-28T19:37:00.638Z,22.00
2022-11-28T19:39:26.991Z,18.85
2022-11-28T19:41:53.792Z,14.68
2022-11-28T19:44:21.877Z,15.15
2022-11-28T19:46:48.325Z,18.80
2022-11-28T19:49:18.924Z,21.23
2022-11-28T19:51:45.859Z,28.63
2022-11-28T19:54:12.267Z,29.23
2022-11-28T19:56:38.739Z,19.77
2022-11-28T19:59:05.163Z,19.05
2022-11-28T20:01:31.724Z,15.13
2022-11-28T20:03:59.412Z,17.33
2022-11-28T20:06:27.366Z,17.88
2022-11-28T20:11:21.879Z,20.77
2022-11-28T20:13:48.343Z,19.27
2022-11-28T20:16:15.616Z,21.48
2022-11-28T20:18:42.505Z,26.02
2022-11-28T20:21:10.277Z,35.33
2022-11-28T20:23:46.598Z,27.85
2022-11-28T20:26:13.721Z,25.27
2022-11-28T20:28:41.041Z,27.07
2022-11-28T20:31:15.483Z,22.38
2022-11-28T20:33:41.832Z,22.00
2022-11-28T20:36:09.220Z,20.98
2022-11-28T20:38:35.986Z,18.58
2022-11-28T20:41:06.141Z,19.73
2022-11-28T20:43:33.062Z,22.35
2022-11-28T20:46:06.839Z,20.80
2022-11-28T20:48:33.196Z,20.08
2022-11-28T20:50:59.563Z,21.00
2022-11-28T20:53:27.031Z,23.42
2022-11-28T20:56:00.660Z,22.98
2022-11-28T20:58:27.475Z,21.42
2022-11-28T21:00:53.879Z,186.90
2022-11-28T21:03:20.311Z,81.18
2022-11-28T21:05:46.720Z,83.07
2022-11-28T21:08:13.028Z,36.28
2022-11-28T21:10:39.361Z,21.95
2022-11-28T21:13:05.720Z,21.73
2022-11-28T21:15:32.132Z,23.45
2022-11-28T21:17:58.449Z,21.63
2022-11-28T21:20:24.910Z,22.40
2022-11-28T21:22:51.208Z,28.55
2022-11-28T21:25:17.569Z,39.45
2022-11-28T21:27:43.976Z,26.98
2022-11-28T21:30:10.510Z,23.38
2022-11-28T21:32:36.830Z,22.17
2022-11-28T21:35:04.670Z,22.77
2022-11-28T21:39:57.527Z,20.35
2022-11-28T21:42:23.858Z,23.10
2022-11-28T21:44:50.183Z,24.63
2022-11-28T21:47:16.554Z,24.13
2022-11-28T21:49:43.296Z,24.42
2022-11-28T21:52:11.470Z,23.55
2022-11-28T21:57:04.165Z,24.73
2022-11-28T21:59:31.503Z,25.20
2022-11-28T22:01:57.944Z,25.58
2022-11-28T22:04:24.411Z,25.00
2022-11-28T22:06:51.310Z,26.13
2022-11-28T22:09:17.658Z,26.92
2022-11-28T22:11:44.028Z,25.48
2022-11-28T22:14:10.787Z,24.85
2022-11-28T22:16:37.197Z,26.20
2022-11-28T22:19:04.207Z,26.33
2022-11-28T22:24:17.611Z,24.42
2022-11-28T22:26:44.050Z,28.38
2022-11-28T22:29:10.389Z,25.75
2022-11-28T22:31:36.836Z,25.92
2022-11-28T22:34:03.264Z,25.45
2022-11-28T22:36:29.753Z,25.38
2022-11-28T22:38:57.105Z,24.80
2022-11-28T22:41:28.333Z,27.40
2022-11-28T22:43:56.373Z,25.48
2022-11-28T22:46:22.835Z,25.92
2022-11-28T22:48:49.312Z,24.02
2022-11-28T22:51:17.178Z,24.20
2022-11-28T22:53:43.708Z,24.88
2022-11-28T22:56:11.858Z,25.17
2022-11-28T22:58:42.450Z,23.20
2022-11-28T23:01:10.869Z,27.75
2022-11-28T23:06:04.441Z,31.05
2022-11-28T23:08:30.873Z,29.95
2022-11-28T23:10:57.260Z,29.08
2022-11-28T23:13:23.640Z,27.30
2022-11-28T23:15:52.934Z,27.58
2022-11-28T23:18:19.481Z,27.60
2022-11-28T23:20:45.823Z,26.25
2022-11-28T23:23:12.137Z,27.70
2022-11-28T23:25:38.500Z,25.83
2022-11-28T23:28:04.863Z,24.77
2022-11-28T23:30:31.181Z,24.58
2022-11-28T23:32:57.487Z,24.75
2022-11-28T23:35:23.819Z,23.65
2022-11-28T23:37:50.143Z,22.90
2022-11-28T23:40:16.565Z,22.67
2022-11-28T23:42:42.929Z,22.85
2022-11-28T23:45:09.512Z,23.02
2022-11-28T23:47:35.833Z,23.00
2022-11-28T23:50:02.209Z,21.45
2022-11-28T23:52:28.579Z,21.88
2022-11-28T23:54:54.887Z,22.80
2022-11-28T23:57:21.254Z,21.83
2022-11-28T23:59:47.564Z,21.70
